createdAt,value
2022-07-31T00:00:57.408Z,48.49
2022-07-31T00:01:57.396Z,48.86
2022-07-31T00:02:57.439Z,48.38
2022-07-31T00:03:57.451Z,47.98
2022-07-31T00:04:57.365Z,48.06
2022-07-31T00:05:57.354Z,48.66
2022-07-31T00:06:57.344Z,48.96
2022-07-31T00:07:57.332Z,48.56
2022-07-31T00:08:57.324Z,48.66
2022-07-31T00:09:57.316Z,49.37
2022-07-31T00:10:57.303Z,50.57
2022-07-31T00:11:57.288Z,51.00
2022-07-31T00:12:57.278Z,49.49
2022-07-31T00:13:58.779Z,49.19
2022-07-31T00:14:57.256Z,49.59
2022-07-31T00:15:57.245Z,49.19
2022-07-31T00:16:57.238Z,47.98
2022-07-31T00:17:57.221Z,47.17
2022-07-31T00:18:57.212Z,47.17
2022-07-31T00:19:57.200Z,46.47
2022-07-31T00:20:57.187Z,46.77
2022-07-31T00:21:57.176Z,46.87
2022-07-31T00:22:57.168Z,47.07
2022-07-31T00:23:57.154Z,46.97
2022-07-31T00:24:57.146Z,46.67
2022-07-31T00:25:57.131Z,45.76
2022-07-31T00:26:57.132Z,45.46
2022-07-31T00:27:57.109Z,45.76
2022-07-31T00:28:57.107Z,45.97
2022-07-31T00:29:57.089Z,45.16
2022-07-31T00:30:57.079Z,45.46
2022-07-31T00:31:57.066Z,44.98
2022-07-31T00:32:57.055Z,44.75
2022-07-31T00:33:57.042Z,44.65
2022-07-31T00:34:57.034Z,45.06
2022-07-31T00:35:57.020Z,45.16
2022-07-31T00:36:57.014Z,45.46
2022-07-31T00:38:24.807Z,45.56
2022-07-31T00:38:56.990Z,44.65
2022-07-31T00:39:56.977Z,44.95
2022-07-31T00:40:56.969Z,45.26
2022-07-31T00:41:56.954Z,45.46
2022-07-31T00:42:56.944Z,45.66
2022-07-31T00:43:56.932Z,45.06
2022-07-31T00:44:56.922Z,44.75
2022-07-31T00:45:59.021Z,43.24
2022-07-31T00:46:56.902Z,42.13
2022-07-31T00:47:56.887Z,41.83
2022-07-31T00:48:56.959Z,42.54
2022-07-31T00:49:56.865Z,42.44
2022-07-31T00:50:56.857Z,43.74
2022-07-31T00:51:56.844Z,42.03
2022-07-31T00:52:56.835Z,43.04
2022-07-31T00:53:56.823Z,43.44
2022-07-31T00:54:56.813Z,43.74
2022-07-31T00:55:56.800Z,44.15
2022-07-31T00:56:56.793Z,44.23
2022-07-31T00:57:56.780Z,44.55
2022-07-31T00:58:56.767Z,44.43
2022-07-31T00:59:56.755Z,44.55
2022-07-31T01:00:56.810Z,44.43
2022-07-31T01:01:56.733Z,44.45
2022-07-31T01:02:56.725Z,44.73
2022-07-31T01:03:56.711Z,44.83
2022-07-31T01:04:56.706Z,45.24
2022-07-31T01:05:56.688Z,44.53
2022-07-31T01:06:56.678Z,44.63
2022-07-31T01:07:56.670Z,44.83
2022-07-31T01:08:56.658Z,44.63
2022-07-31T01:09:56.651Z,44.13
2022-07-31T01:10:56.636Z,44.05
2022-07-31T01:11:56.626Z,43.54
2022-07-31T01:12:56.614Z,43.73
2022-07-31T01:13:56.603Z,43.73
2022-07-31T01:14:56.595Z,44.13
2022-07-31T01:15:56.580Z,44.23
2022-07-31T01:16:56.569Z,43.22
2022-07-31T01:17:56.562Z,43.42
2022-07-31T01:18:56.551Z,43.32
2022-07-31T01:19:56.536Z,43.85
2022-07-31T01:20:56.526Z,43.42
2022-07-31T01:21:56.527Z,43.44
2022-07-31T01:22:56.503Z,42.82
2022-07-31T01:23:56.496Z,42.52
2022-07-31T01:24:56.481Z,42.61
2022-07-31T01:25:56.470Z,41.51
2022-07-31T01:26:56.460Z,41.93
2022-07-31T01:27:56.450Z,41.81
2022-07-31T01:28:56.439Z,41.41
2022-07-31T01:29:56.427Z,41.13
2022-07-31T01:31:17.074Z,41.11
2022-07-31T01:31:57.463Z,40.52
2022-07-31T01:32:56.397Z,40.42
2022-07-31T01:33:56.384Z,39.81
2022-07-31T01:34:56.377Z,40.12
2022-07-31T01:35:56.364Z,40.22
2022-07-31T01:36:56.353Z,40.80
2022-07-31T01:37:56.345Z,41.00
2022-07-31T01:38:56.333Z,41.41
2022-07-31T01:39:56.323Z,41.61
2022-07-31T01:40:56.311Z,41.41
2022-07-31T01:41:56.302Z,41.61
2022-07-31T01:42:56.295Z,42.21
2022-07-31T01:43:56.274Z,42.41
2022-07-31T01:44:56.266Z,42.21
2022-07-31T01:45:56.257Z,42.21
2022-07-31T01:46:56.250Z,42.01
2022-07-31T01:47:56.233Z,42.01
2022-07-31T01:48:56.322Z,41.61
2022-07-31T01:49:56.213Z,40.91
2022-07-31T01:50:56.201Z,41.31
2022-07-31T01:51:56.190Z,41.13
2022-07-31T01:52:57.205Z,40.42
2022-07-31T01:53:56.167Z,40.72
2022-07-31T01:54:56.157Z,40.92
2022-07-31T01:55:56.371Z,41.02
2022-07-31T01:56:56.137Z,40.92
2022-07-31T01:57:56.123Z,40.72
2022-07-31T01:58:56.113Z,40.52
2022-07-31T01:59:56.100Z,40.52
2022-07-31T02:00:56.125Z,39.51
2022-07-31T02:01:56.080Z,39.61
2022-07-31T02:02:56.073Z,39.92
2022-07-31T02:03:56.286Z,39.92
2022-07-31T02:04:56.052Z,39.72
2022-07-31T02:05:56.035Z,39.31
2022-07-31T02:06:56.027Z,39.41
2022-07-31T02:07:56.012Z,38.91
2022-07-31T02:08:56.001Z,38.91
2022-07-31T02:09:58.698Z,38.50
2022-07-31T02:10:55.981Z,38.60
2022-07-31T02:11:55.968Z,38.60
2022-07-31T02:12:55.961Z,38.50
2022-07-31T02:13:55.947Z,39.01
2022-07-31T02:14:55.937Z,38.81
2022-07-31T02:15:55.927Z,38.91
2022-07-31T02:16:55.913Z,38.40
2022-07-31T02:17:55.903Z,38.71
2022-07-31T02:18:55.891Z,38.71
2022-07-31T02:20:00.389Z,38.81
2022-07-31T02:20:55.866Z,37.80
2022-07-31T02:21:55.861Z,38.00
2022-07-31T02:22:55.855Z,38.50
2022-07-31T02:23:55.837Z,38.81
2022-07-31T02:24:55.824Z,38.91
2022-07-31T02:25:55.815Z,39.21
2022-07-31T02:26:55.802Z,39.21
2022-07-31T02:27:58.781Z,39.21
2022-07-31T02:28:55.782Z,39.41
2022-07-31T02:29:55.772Z,39.72
2022-07-31T02:30:55.756Z,39.61
2022-07-31T02:32:01.800Z,40.12
2022-07-31T02:32:55.736Z,40.12
2022-07-31T02:33:55.726Z,38.91
2022-07-31T02:34:55.713Z,39.21
2022-07-31T02:35:55.700Z,39.31
2022-07-31T02:36:55.690Z,39.61
2022-07-31T02:37:55.683Z,39.72
2022-07-31T02:38:55.671Z,39.92
2022-07-31T02:39:55.659Z,39.81
2022-07-31T02:40:55.648Z,40.22
2022-07-31T02:41:55.636Z,40.22
2022-07-31T02:42:55.629Z,40.01
2022-07-31T02:43:55.619Z,40.01
2022-07-31T02:44:55.601Z,40.22
2022-07-31T02:45:55.593Z,40.01
2022-07-31T02:46:55.581Z,40.01
2022-07-31T02:47:55.573Z,40.22
2022-07-31T02:48:55.593Z,39.51
2022-07-31T02:49:55.554Z,39.51
2022-07-31T02:50:55.639Z,39.41
2022-07-31T02:51:55.528Z,40.22
2022-07-31T02:52:55.519Z,39.31
2022-07-31T02:53:55.508Z,39.41
2022-07-31T02:54:55.498Z,39.21
2022-07-31T02:55:55.485Z,39.51
2022-07-31T02:56:55.473Z,39.61
2022-07-31T02:57:55.464Z,39.51
2022-07-31T02:58:55.450Z,39.01
2022-07-31T02:59:55.446Z,39.01
2022-07-31T03:00:55.469Z,38.30
2022-07-31T03:01:55.418Z,38.30
2022-07-31T03:02:55.406Z,38.20
2022-07-31T03:03:55.400Z,38.60
2022-07-31T03:04:55.385Z,38.30
2022-07-31T03:05:55.374Z,38.40
2022-07-31T03:06:55.363Z,38.71
2022-07-31T03:07:55.353Z,37.29
2022-07-31T03:08:55.341Z,36.89
2022-07-31T03:09:55.332Z,37.09
2022-07-31T03:10:55.321Z,37.62
2022-07-31T03:11:55.327Z,38.32
2022-07-31T03:12:55.298Z,38.60
2022-07-31T03:13:55.287Z,38.91
2022-07-31T03:14:55.280Z,38.82
2022-07-31T03:15:55.266Z,38.81
2022-07-31T03:16:55.254Z,39.21
2022-07-31T03:17:55.246Z,39.03
2022-07-31T03:18:55.234Z,38.40
2022-07-31T03:19:55.222Z,39.03
2022-07-31T03:20:55.208Z,39.11
2022-07-31T03:21:55.202Z,39.73
2022-07-31T03:22:55.186Z,39.83
2022-07-31T03:23:55.190Z,40.62
2022-07-31T03:24:55.163Z,41.63
2022-07-31T03:25:55.158Z,42.35
2022-07-31T03:26:55.142Z,42.54
2022-07-31T03:27:56.152Z,41.93
2022-07-31T03:28:55.119Z,42.03
2022-07-31T03:29:55.109Z,42.03
2022-07-31T03:30:56.581Z,41.93
2022-07-31T03:31:55.089Z,41.83
2022-07-31T03:32:55.077Z,41.63
2022-07-31T03:33:55.064Z,44.15
2022-07-31T03:34:55.054Z,43.85
2022-07-31T03:35:55.041Z,43.14
2022-07-31T03:36:55.032Z,43.26
2022-07-31T03:37:55.022Z,43.34
2022-07-31T03:38:55.010Z,43.24
2022-07-31T03:39:54.998Z,44.07
2022-07-31T03:40:54.987Z,43.44
2022-07-31T03:41:54.978Z,43.37
2022-07-31T03:42:54.964Z,43.65
2022-07-31T03:43:54.954Z,43.87
2022-07-31T03:44:54.943Z,44.67
2022-07-31T03:45:54.933Z,44.27
2022-07-31T03:46:54.920Z,44.27
2022-07-31T03:47:54.910Z,44.27
2022-07-31T03:48:54.924Z,44.78
2022-07-31T03:49:54.890Z,45.36
2022-07-31T03:50:54.876Z,44.75
2022-07-31T03:51:54.868Z,44.87
2022-07-31T03:52:54.853Z,44.15
2022-07-31T03:53:54.842Z,44.37
2022-07-31T03:54:54.840Z,44.15
2022-07-31T03:55:54.827Z,43.14
2022-07-31T03:56:54.816Z,43.46
2022-07-31T03:57:54.802Z,43.46
2022-07-31T03:58:54.787Z,43.66
2022-07-31T03:59:54.779Z,45.36
2022-07-31T04:00:54.772Z,44.67
2022-07-31T04:02:07.564Z,44.45
2022-07-31T04:02:54.840Z,44.27
2022-07-31T04:03:54.732Z,44.75
2022-07-31T04:04:54.725Z,44.95
2022-07-31T04:05:54.715Z,44.95
2022-07-31T04:06:54.700Z,45.16
2022-07-31T04:07:54.690Z,46.97
2022-07-31T04:08:54.675Z,46.87
2022-07-31T04:09:54.674Z,45.76
2022-07-31T04:10:54.656Z,45.86
2022-07-31T04:11:54.645Z,46.06
2022-07-31T04:12:54.634Z,46.06
2022-07-31T04:13:54.623Z,46.37
2022-07-31T04:14:54.613Z,46.06
2022-07-31T04:15:54.606Z,45.76
2022-07-31T04:16:54.591Z,46.26
2022-07-31T04:17:54.584Z,46.97
2022-07-31T04:18:54.567Z,46.97
2022-07-31T04:19:54.562Z,47.07
2022-07-31T04:20:54.543Z,47.27
2022-07-31T04:21:54.538Z,47.58
2022-07-31T04:22:55.745Z,48.06
2022-07-31T04:23:54.512Z,48.79
2022-07-31T04:24:54.541Z,48.56
2022-07-31T04:25:54.502Z,49.77
2022-07-31T04:26:54.494Z,56.12
2022-07-31T04:27:54.466Z,54.10
2022-07-31T04:28:54.469Z,56.35
2022-07-31T04:29:54.447Z,55.21
2022-07-31T04:30:54.438Z,55.01
2022-07-31T04:31:54.423Z,55.11
2022-07-31T04:32:54.412Z,55.41
2022-07-31T04:33:56.741Z,56.92
2022-07-31T04:34:54.390Z,58.94
2022-07-31T04:35:54.379Z,59.64
2022-07-31T04:36:54.368Z,64.38
2022-07-31T04:37:54.367Z,65.09
2022-07-31T04:38:54.344Z,65.39
2022-07-31T04:39:54.339Z,66.80
2022-07-31T04:40:54.346Z,69.72
2022-07-31T04:41:54.312Z,68.81
2022-07-31T04:42:54.308Z,68.61
2022-07-31T04:43:54.313Z,69.42
2022-07-31T04:44:54.311Z,70.02
2022-07-31T04:45:54.317Z,68.71
2022-07-31T04:46:54.282Z,68.38
2022-07-31T04:47:54.274Z,68.31
2022-07-31T04:48:54.308Z,68.08
2022-07-31T04:49:54.226Z,68.98
2022-07-31T04:50:54.216Z,71.80
2022-07-31T04:51:54.206Z,70.59
2022-07-31T04:52:54.190Z,70.59
2022-07-31T04:53:54.183Z,71.50
2022-07-31T04:54:54.172Z,70.50
2022-07-31T04:55:54.161Z,70.29
2022-07-31T04:56:54.150Z,70.70
2022-07-31T04:57:54.142Z,68.98
2022-07-31T04:58:54.135Z,71.00
2022-07-31T04:59:59.092Z,71.80
2022-07-31T05:00:55.168Z,74.52
2022-07-31T05:01:54.312Z,73.11
2022-07-31T05:02:54.107Z,71.94
2022-07-31T05:03:54.128Z,71.64
2022-07-31T05:04:57.160Z,70.73
2022-07-31T05:05:54.054Z,69.62
2022-07-31T05:06:54.041Z,70.32
2022-07-31T05:07:54.035Z,70.62
2022-07-31T05:08:54.021Z,69.01
2022-07-31T05:09:54.010Z,68.01
2022-07-31T05:10:53.997Z,66.73
2022-07-31T05:11:53.987Z,66.13
2022-07-31T05:12:53.978Z,65.01
2022-07-31T05:13:53.974Z,65.01
2022-07-31T05:14:53.954Z,64.72
2022-07-31T05:15:53.951Z,63.13
2022-07-31T05:16:53.932Z,63.13
2022-07-31T05:17:53.924Z,62.52
2022-07-31T05:18:53.909Z,62.22
2022-07-31T05:19:53.906Z,61.82
2022-07-31T05:20:53.893Z,62.73
2022-07-31T05:21:56.300Z,64.95
2022-07-31T05:22:53.869Z,65.15
2022-07-31T05:23:53.877Z,65.62
2022-07-31T05:24:53.861Z,65.12
2022-07-31T05:25:53.896Z,64.21
2022-07-31T05:26:53.868Z,64.31
2022-07-31T05:27:53.818Z,66.06
2022-07-31T05:28:58.151Z,70.46
2022-07-31T05:29:53.796Z,70.09
2022-07-31T05:30:53.780Z,71.87
2022-07-31T05:32:10.058Z,76.92
2022-07-31T05:32:53.760Z,80.50
2022-07-31T05:33:53.749Z,82.76
2022-07-31T05:34:53.739Z,83.93
2022-07-31T05:35:53.727Z,83.17
2022-07-31T05:36:53.719Z,83.87
2022-07-31T05:37:53.712Z,83.47
2022-07-31T05:38:53.697Z,83.37
2022-07-31T05:39:53.687Z,83.17
2022-07-31T05:40:53.672Z,82.17
2022-07-31T05:41:53.664Z,81.46
2022-07-31T05:42:53.650Z,82.46
2022-07-31T05:43:53.639Z,82.17
2022-07-31T05:44:53.630Z,82.26
2022-07-31T05:45:53.632Z,83.03
2022-07-31T05:47:18.046Z,83.63
2022-07-31T05:48:18.040Z,84.74
2022-07-31T05:49:18.210Z,86.84
2022-07-31T05:50:18.041Z,86.54
2022-07-31T05:51:18.014Z,86.64
2022-07-31T05:52:18.022Z,86.14
2022-07-31T05:53:17.996Z,86.24
2022-07-31T05:54:17.977Z,86.74
2022-07-31T05:55:18.016Z,85.94
2022-07-31T05:56:17.946Z,86.04
2022-07-31T05:57:33.801Z,86.24
2022-07-31T05:58:18.955Z,86.54
2022-07-31T05:59:17.918Z,86.10
2022-07-31T06:00:17.906Z,85.80
2022-07-31T06:01:17.933Z,86.60
2022-07-31T06:02:17.885Z,86.60
2022-07-31T06:03:17.875Z,85.85
2022-07-31T06:04:17.861Z,86.55
2022-07-31T06:05:17.855Z,87.96
2022-07-31T06:06:17.839Z,88.02
2022-07-31T06:07:17.828Z,91.32
2022-07-31T06:08:17.818Z,90.02
2022-07-31T06:09:17.812Z,89.22
2022-07-31T06:10:17.799Z,89.12
2022-07-31T06:11:17.790Z,88.92
2022-07-31T06:12:17.774Z,88.82
2022-07-31T06:13:17.780Z,89.68
2022-07-31T06:14:17.821Z,90.32
2022-07-31T06:15:17.772Z,90.12
2022-07-31T06:16:17.760Z,89.92
2022-07-31T06:17:17.720Z,90.52
2022-07-31T06:18:17.718Z,89.78
2022-07-31T06:19:17.702Z,88.48
2022-07-31T06:20:17.687Z,90.17
2022-07-31T06:21:42.108Z,89.52
2022-07-31T06:22:42.090Z,90.02
2022-07-31T06:23:42.082Z,89.72
2022-07-31T06:24:43.397Z,90.22
2022-07-31T06:25:42.057Z,89.72
2022-07-31T06:26:42.048Z,88.92
2022-07-31T06:27:42.035Z,90.12
2022-07-31T06:28:48.537Z,89.68
2022-07-31T06:29:42.421Z,90.17
2022-07-31T06:30:42.004Z,89.87
2022-07-31T06:31:41.991Z,87.87
2022-07-31T06:32:41.979Z,88.73
2022-07-31T06:33:41.970Z,89.33
2022-07-31T06:34:41.956Z,89.89
2022-07-31T06:35:41.949Z,89.59
2022-07-31T06:36:41.940Z,89.85
2022-07-31T06:37:41.925Z,89.55
2022-07-31T06:38:41.911Z,86.85
2022-07-31T06:39:55.752Z,83.15
2022-07-31T06:40:41.941Z,86.05
2022-07-31T06:41:41.914Z,86.65
2022-07-31T06:42:41.896Z,87.05
2022-07-31T06:43:41.875Z,86.15
2022-07-31T06:44:46.287Z,87.35
2022-07-31T06:45:51.928Z,84.15
2022-07-31T06:46:48.711Z,85.95
2022-07-31T06:47:42.842Z,84.25
2022-07-31T06:48:41.801Z,86.75
2022-07-31T06:49:41.938Z,83.11
2022-07-31T06:50:41.810Z,86.01
2022-07-31T06:51:41.815Z,82.91
2022-07-31T06:52:41.797Z,81.67
2022-07-31T06:53:41.802Z,79.97
2022-07-31T06:54:41.763Z,78.08
2022-07-31T06:55:44.763Z,79.58
2022-07-31T06:56:41.716Z,78.58
2022-07-31T06:57:41.708Z,78.64
2022-07-31T06:58:41.696Z,76.98
2022-07-31T06:59:41.682Z,76.04
2022-07-31T07:00:41.670Z,76.98
2022-07-31T07:01:41.704Z,76.54
2022-07-31T07:02:41.666Z,77.04
2022-07-31T07:03:41.751Z,76.75
2022-07-31T07:05:04.527Z,77.34
2022-07-31T07:05:45.361Z,75.05
2022-07-31T07:06:41.607Z,77.74
2022-07-31T07:07:41.652Z,74.79
2022-07-31T07:08:42.147Z,76.58
2022-07-31T07:09:41.575Z,75.15
2022-07-31T07:10:41.642Z,76.04
2022-07-31T07:11:41.554Z,74.62
2022-07-31T07:12:41.545Z,69.73
2022-07-31T07:13:46.367Z,72.72
2022-07-31T07:14:41.522Z,71.48
2022-07-31T07:15:41.517Z,71.78
2022-07-31T07:16:41.496Z,70.59
2022-07-31T07:17:41.485Z,69.66
2022-07-31T07:18:41.481Z,67.66
2022-07-31T07:19:41.464Z,66.20
2022-07-31T07:20:41.452Z,68.53
2022-07-31T07:21:41.440Z,72.02
2022-07-31T07:22:41.432Z,71.69
2022-07-31T07:23:41.419Z,70.59
2022-07-31T07:24:41.406Z,75.37
2022-07-31T07:25:41.415Z,71.55
2022-07-31T07:26:41.401Z,66.80
2022-07-31T07:27:41.406Z,69.23
2022-07-31T07:28:41.381Z,69.13
2022-07-31T07:29:41.352Z,69.82
2022-07-31T07:30:41.343Z,70.72
2022-07-31T07:31:41.332Z,72.22
2022-07-31T07:32:41.323Z,73.22
2022-07-31T07:33:42.865Z,78.67
2022-07-31T07:34:41.295Z,72.38
2022-07-31T07:35:41.285Z,73.22
2022-07-31T07:36:41.273Z,76.01
2022-07-31T07:37:41.264Z,76.81
2022-07-31T07:38:41.251Z,79.40
2022-07-31T07:39:41.239Z,76.71
2022-07-31T07:40:41.228Z,76.61
2022-07-31T07:41:41.218Z,80.54
2022-07-31T07:42:41.208Z,78.74
2022-07-31T07:43:41.198Z,78.74
2022-07-31T07:44:41.184Z,78.74
2022-07-31T07:45:41.175Z,80.83
2022-07-31T07:46:41.162Z,80.44
2022-07-31T07:48:05.435Z,80.04
2022-07-31T07:48:41.167Z,80.64
2022-07-31T07:49:41.381Z,77.14
2022-07-31T07:50:41.167Z,77.94
2022-07-31T07:51:58.370Z,77.01
2022-07-31T07:52:43.960Z,78.41
2022-07-31T07:53:41.097Z,75.78
2022-07-31T07:54:41.079Z,75.48
2022-07-31T07:55:41.068Z,76.07
2022-07-31T07:56:41.057Z,74.94
2022-07-31T07:57:41.047Z,72.52
2022-07-31T07:58:41.040Z,74.60
2022-07-31T07:59:41.024Z,74.51
2022-07-31T08:00:41.115Z,71.22
2022-07-31T08:01:41.052Z,73.61
2022-07-31T08:02:40.992Z,74.30
2022-07-31T08:03:48.885Z,73.28
2022-07-31T08:04:44.656Z,70.98
2022-07-31T08:05:41.985Z,69.96
2022-07-31T08:06:40.947Z,66.91
2022-07-31T08:07:41.776Z,69.26
2022-07-31T08:08:40.926Z,69.53
2022-07-31T08:09:40.915Z,67.74
2022-07-31T08:10:40.918Z,65.81
2022-07-31T08:11:40.935Z,65.48
2022-07-31T08:12:40.890Z,64.39
2022-07-31T08:13:41.059Z,63.76
2022-07-31T08:14:40.857Z,62.05
2022-07-31T08:15:40.849Z,61.94
2022-07-31T08:16:40.845Z,62.15
2022-07-31T08:17:40.828Z,60.33
2022-07-31T08:18:40.816Z,61.42
2022-07-31T08:19:40.808Z,58.27
2022-07-31T08:20:40.794Z,59.66
2022-07-31T08:21:40.782Z,60.46
2022-07-31T08:22:40.774Z,59.56
2022-07-31T08:23:40.764Z,60.53
2022-07-31T08:24:40.754Z,60.72
2022-07-31T08:25:40.742Z,58.72
2022-07-31T08:26:40.735Z,57.53
2022-07-31T08:27:40.820Z,58.81
2022-07-31T08:28:40.711Z,57.42
2022-07-31T08:29:40.700Z,56.73
2022-07-31T08:30:40.690Z,56.73
2022-07-31T08:31:40.677Z,57.59
2022-07-31T08:32:41.697Z,56.97
2022-07-31T08:33:40.852Z,57.79
2022-07-31T08:34:42.214Z,57.67
2022-07-31T08:35:40.655Z,57.14
2022-07-31T08:36:40.620Z,57.12
2022-07-31T08:37:59.319Z,56.62
2022-07-31T08:38:40.599Z,56.82
2022-07-31T08:39:40.588Z,55.58
2022-07-31T08:40:43.005Z,54.86
2022-07-31T08:41:40.567Z,53.45
2022-07-31T08:42:40.555Z,52.31
2022-07-31T08:44:03.288Z,50.98
2022-07-31T08:44:40.543Z,49.62
2022-07-31T08:45:40.638Z,49.90
2022-07-31T08:46:40.513Z,49.73
2022-07-31T08:47:40.502Z,50.44
2022-07-31T08:48:40.629Z,51.05
2022-07-31T08:49:40.532Z,51.47
2022-07-31T08:50:40.580Z,52.61
2022-07-31T08:51:51.030Z,53.03
2022-07-31T08:52:41.478Z,53.81
2022-07-31T08:53:40.441Z,54.11
2022-07-31T08:54:40.428Z,53.89
2022-07-31T08:55:56.539Z,53.99
2022-07-31T08:56:40.537Z,54.90
2022-07-31T08:57:40.628Z,53.89
2022-07-31T08:58:40.607Z,54.28
2022-07-31T08:59:40.394Z,54.80
2022-07-31T09:00:40.419Z,54.51
2022-07-31T09:01:40.519Z,54.21
2022-07-31T09:02:40.346Z,54.04
2022-07-31T09:03:40.336Z,52.58
2022-07-31T09:04:40.324Z,53.20
2022-07-31T09:05:42.174Z,54.39
2022-07-31T09:06:40.303Z,53.99
2022-07-31T09:07:40.291Z,53.63
2022-07-31T09:08:40.286Z,52.51
2022-07-31T09:09:50.982Z,53.30
2022-07-31T09:10:40.260Z,50.83
2022-07-31T09:11:40.251Z,51.65
2022-07-31T09:12:40.243Z,51.84
2022-07-31T09:13:40.232Z,51.84
2022-07-31T09:14:40.220Z,51.35
2022-07-31T09:15:40.210Z,51.54
2022-07-31T09:16:40.200Z,51.45
2022-07-31T09:17:40.189Z,51.92
2022-07-31T09:18:40.188Z,51.32
2022-07-31T09:19:54.257Z,52.01
2022-07-31T09:20:41.195Z,51.32
2022-07-31T09:21:40.170Z,52.34
2022-07-31T09:22:40.136Z,52.71
2022-07-31T09:23:40.122Z,51.72
2022-07-31T09:24:40.115Z,52.54
2022-07-31T09:25:40.101Z,52.34
2022-07-31T09:26:40.094Z,52.44
2022-07-31T09:27:40.082Z,52.64
2022-07-31T09:28:40.077Z,53.53
2022-07-31T09:29:40.060Z,52.96
2022-07-31T09:30:56.077Z,53.08
2022-07-31T09:31:40.038Z,54.47
2022-07-31T09:32:40.029Z,54.24
2022-07-31T09:33:45.221Z,54.35
2022-07-31T09:34:40.027Z,53.03
2022-07-31T09:35:39.997Z,52.81
2022-07-31T09:36:39.986Z,53.77
2022-07-31T09:37:39.976Z,52.86
2022-07-31T09:38:39.965Z,51.28
2022-07-31T09:39:50.148Z,52.48
2022-07-31T09:40:57.142Z,51.50
2022-07-31T09:42:00.885Z,53.18
2022-07-31T09:42:45.705Z,51.99
2022-07-31T09:43:51.750Z,52.39
2022-07-31T09:44:39.940Z,51.59
2022-07-31T09:45:48.146Z,51.59
2022-07-31T09:46:40.907Z,51.82
2022-07-31T09:47:39.870Z,53.03
2022-07-31T09:48:39.860Z,52.81
2022-07-31T09:49:39.967Z,53.63
2022-07-31T09:50:39.840Z,55.01
2022-07-31T09:51:39.828Z,55.30
2022-07-31T09:52:39.817Z,56.40
2022-07-31T09:53:43.356Z,55.60
2022-07-31T09:54:40.001Z,58.20
2022-07-31T09:55:39.784Z,58.90
2022-07-31T09:56:39.773Z,59.56
2022-07-31T09:57:39.763Z,56.62
2022-07-31T09:58:41.267Z,56.23
2022-07-31T09:59:39.739Z,56.32
2022-07-31T10:00:39.789Z,55.93
2022-07-31T10:01:39.716Z,54.74
2022-07-31T10:02:39.709Z,54.14
2022-07-31T10:03:39.696Z,56.42
2022-07-31T10:04:39.688Z,55.43
2022-07-31T10:05:39.709Z,55.33
2022-07-31T10:06:39.696Z,55.13
2022-07-31T10:07:39.665Z,54.91
2022-07-31T10:08:39.640Z,55.21
2022-07-31T10:09:39.631Z,52.91
2022-07-31T10:10:39.621Z,52.31
2022-07-31T10:11:39.611Z,53.13
2022-07-31T10:12:39.600Z,55.01
2022-07-31T10:13:40.582Z,54.69
2022-07-31T10:14:39.576Z,53.60
2022-07-31T10:15:39.567Z,54.19
2022-07-31T10:16:39.556Z,53.50
2022-07-31T10:17:39.570Z,53.80
2022-07-31T10:18:44.133Z,53.70
2022-07-31T10:19:39.523Z,53.70
2022-07-31T10:20:39.515Z,53.82
2022-07-31T10:21:39.505Z,54.02
2022-07-31T10:22:39.495Z,54.35
2022-07-31T10:23:39.484Z,54.02
2022-07-31T10:24:39.476Z,53.92
2022-07-31T10:25:39.460Z,54.19
2022-07-31T10:26:59.636Z,53.67
2022-07-31T10:27:40.477Z,53.47
2022-07-31T10:28:39.454Z,51.47
2022-07-31T10:29:39.655Z,52.76
2022-07-31T10:30:39.414Z,51.82
2022-07-31T10:31:39.403Z,53.00
2022-07-31T10:32:39.390Z,53.40
2022-07-31T10:33:44.579Z,53.67
2022-07-31T10:34:39.365Z,52.17
2022-07-31T10:35:39.354Z,52.36
2022-07-31T10:36:39.343Z,52.83
2022-07-31T10:37:39.332Z,52.31
2022-07-31T10:38:39.322Z,50.14
2022-07-31T10:39:39.311Z,50.71
2022-07-31T10:40:39.305Z,49.40
2022-07-31T10:41:39.296Z,49.26
2022-07-31T10:42:39.278Z,49.01
2022-07-31T10:43:39.267Z,47.80
2022-07-31T10:44:39.261Z,46.97
2022-07-31T10:45:39.251Z,47.74
2022-07-31T10:46:39.238Z,45.57
2022-07-31T10:47:39.227Z,45.26
2022-07-31T10:48:40.270Z,45.43
2022-07-31T10:49:39.328Z,44.92
2022-07-31T10:50:39.253Z,43.41
2022-07-31T10:51:39.211Z,43.02
2022-07-31T10:52:39.221Z,43.31
2022-07-31T10:53:50.487Z,44.41
2022-07-31T10:54:39.157Z,44.18
2022-07-31T10:55:39.144Z,45.70
2022-07-31T10:56:39.138Z,47.22
2022-07-31T10:57:57.163Z,46.82
2022-07-31T10:58:40.142Z,46.70
2022-07-31T10:59:42.958Z,47.09
2022-07-31T11:00:39.115Z,48.05
2022-07-31T11:01:39.113Z,47.29
2022-07-31T11:02:39.077Z,46.72
2022-07-31T11:03:39.062Z,47.41
2022-07-31T11:04:39.056Z,49.11
2022-07-31T11:06:01.587Z,49.28
2022-07-31T11:06:39.042Z,47.58
2022-07-31T11:07:39.022Z,47.47
2022-07-31T11:08:39.012Z,46.48
2022-07-31T11:09:50.338Z,47.07
2022-07-31T11:10:38.992Z,46.75
2022-07-31T11:11:38.992Z,47.30
2022-07-31T11:12:39.006Z,46.12
2022-07-31T11:13:38.982Z,45.63
2022-07-31T11:14:38.965Z,46.38
2022-07-31T11:15:38.939Z,48.15
2022-07-31T11:16:38.928Z,46.68
2022-07-31T11:18:22.056Z,46.38
2022-07-31T11:18:39.932Z,46.88
2022-07-31T11:19:41.432Z,46.95
2022-07-31T11:20:38.886Z,46.95
2022-07-31T11:21:39.884Z,46.83
2022-07-31T11:22:38.950Z,46.53
2022-07-31T11:23:38.860Z,46.44
2022-07-31T11:24:38.849Z,46.44
2022-07-31T11:25:38.834Z,46.44
2022-07-31T11:26:41.267Z,45.87
2022-07-31T11:27:38.814Z,47.25
2022-07-31T11:28:38.802Z,47.44
2022-07-31T11:30:01.735Z,46.90
2022-07-31T11:30:39.809Z,48.71
2022-07-31T11:31:38.773Z,49.43
2022-07-31T11:32:38.807Z,48.91
2022-07-31T11:33:42.221Z,47.83
2022-07-31T11:34:38.746Z,48.00
2022-07-31T11:35:38.766Z,47.88
2022-07-31T11:36:38.810Z,47.74
2022-07-31T11:37:56.315Z,46.22
2022-07-31T11:38:38.700Z,45.21
2022-07-31T11:39:38.688Z,45.80
2022-07-31T11:40:38.683Z,46.31
2022-07-31T11:41:43.920Z,46.41
2022-07-31T11:42:38.658Z,46.81
2022-07-31T11:43:38.648Z,47.39
2022-07-31T11:44:38.650Z,47.00
2022-07-31T11:45:38.908Z,46.53
2022-07-31T11:46:38.618Z,46.02
2022-07-31T11:48:12.603Z,46.81
2022-07-31T11:48:44.900Z,46.41
2022-07-31T11:49:47.819Z,46.51
2022-07-31T11:50:38.572Z,46.44
2022-07-31T11:51:38.562Z,47.71
2022-07-31T11:52:38.557Z,47.32
2022-07-31T11:53:38.540Z,46.56
2022-07-31T11:54:38.534Z,47.09
2022-07-31T11:55:38.522Z,48.86
2022-07-31T11:56:38.562Z,47.31
2022-07-31T11:57:51.168Z,47.73
2022-07-31T11:58:38.528Z,48.94
2022-07-31T11:59:46.264Z,49.52
2022-07-31T12:00:39.494Z,49.52
2022-07-31T12:01:40.733Z,49.62
2022-07-31T12:02:38.500Z,50.44
2022-07-31T12:03:38.441Z,51.92
2022-07-31T12:04:38.433Z,51.25
2022-07-31T12:05:39.509Z,54.01
2022-07-31T12:06:38.408Z,53.81
2022-07-31T12:07:38.397Z,54.23
2022-07-31T12:08:38.387Z,57.78
2022-07-31T12:10:01.813Z,54.82
2022-07-31T12:10:38.367Z,54.93
2022-07-31T12:11:38.355Z,53.84
2022-07-31T12:12:38.344Z,53.34
2022-07-31T12:13:38.500Z,52.85
2022-07-31T12:14:38.321Z,52.66
2022-07-31T12:15:38.311Z,54.11
2022-07-31T12:16:38.304Z,52.33
2022-07-31T12:17:38.290Z,50.95
2022-07-31T12:18:38.290Z,51.67
2022-07-31T12:19:38.790Z,54.82
2022-07-31T12:20:38.306Z,55.15
2022-07-31T12:21:38.292Z,56.73
2022-07-31T12:22:38.288Z,54.55
2022-07-31T12:23:38.684Z,54.48
2022-07-31T12:24:38.217Z,54.38
2022-07-31T12:25:38.207Z,53.30
2022-07-31T12:26:38.201Z,52.24
2022-07-31T12:27:38.182Z,53.25
2022-07-31T12:28:38.176Z,54.14
2022-07-31T12:29:38.163Z,57.47
2022-07-31T12:30:38.160Z,63.00
2022-07-31T12:31:38.141Z,61.65
2022-07-31T12:32:38.131Z,61.18
2022-07-31T12:33:38.123Z,65.77
2022-07-31T12:34:38.114Z,82.18
2022-07-31T12:35:55.636Z,68.66
2022-07-31T12:36:38.090Z,76.98
2022-07-31T12:37:38.089Z,76.38
2022-07-31T12:38:44.910Z,80.18
2022-07-31T12:39:47.784Z,71.01
2022-07-31T12:40:38.159Z,73.68
2022-07-31T12:41:38.334Z,74.80
2022-07-31T12:42:41.895Z,81.81
2022-07-31T12:43:38.031Z,81.84
2022-07-31T12:44:38.049Z,78.57
2022-07-31T12:45:37.990Z,76.99
2022-07-31T12:46:37.981Z,78.51
2022-07-31T12:47:37.967Z,88.18
2022-07-31T12:48:41.121Z,81.49
2022-07-31T12:49:38.037Z,86.78
2022-07-31T12:50:37.936Z,87.77
2022-07-31T12:51:46.128Z,90.55
2022-07-31T12:52:37.912Z,89.16
2022-07-31T12:53:37.908Z,88.57